Time;durP1;ratioP1;P1;durP2;ratioP2;P2;SDS_P1;SDS_P2;PMS_P1;PMS_P2;Temp;Humidity;BMP_temperature;BMP_pressure;BME280_temperature;BME280_humidity;BME280_pressure;Samples;Min_cycle;Max_cycle;Signal;HPM_P1;HPM_P2
2021/12/18 00:19:04;;;;;;;82.53;41.17;;;6.30;99.90;;;;;;5096290;24;20618;-85
2021/12/18 00:42:21;;;;;;;62.35;33.13;;;5.40;99.90;;;;;;4682848;30;20069;-86
2021/12/18 00:48:16;;;;;;;60.65;29.45;;;6.40;99.90;;;;;;4943675;24;20086;-86
2021/12/18 00:51:33;;;;;;;53.50;29.27;;;6.60;99.90;;;;;;4796580;24;20062;-84
2021/12/18 00:54:16;;;;;;;67.38;33.25;;;6.70;99.90;;;;;;4771675;30;20071;-85
2021/12/18 08:22:22;;;;;;;15.43;7.68;;;6.30;99.90;;;;;;4806775;24;20063;-86
2021/12/18 08:25:54;;;;;;;;;;;;;;;;;;;;;
2021/12/18 08:29:14;;;;;;;15.50;7.93;;;7.40;99.90;;;;;;4801034;24;20059;-86
2021/12/18 08:37:09;;;;;;;19.50;7.65;;;6.60;99.90;;;;;;4791266;30;20059;-85
2021/12/18 08:40:11;;;;;;;15.52;7.97;;;6.20;99.90;;;;;;4790730;30;20510;-86
2021/12/18 08:42:57;;;;;;;18.42;7.70;;;6.50;99.90;;;;;;4791263;30;20066;-86
2021/12/18 08:48:34;;;;;;;16.95;7.72;;;6.60;99.90;;;;;;4789785;30;20393;-86
2021/12/18 08:51:37;;;;;;;19.50;7.55;;;6.50;99.90;;;;;;4790338;30;20190;-85
2021/12/18 08:54:40;;;;;;;19.42;8.23;;;6.30;99.90;;;;;;4699674;30;20065;-85
2021/12/18 08:57:39;;;;;;;17.13;7.68;;;6.30;99.90;;;;;;4729033;30;20058;-85
2021/12/18 09:00:30;;;;;;;15.65;7.22;;;6.30;99.90;;;;;;4781527;30;20055;-85
2021/12/18 09:03:10;;;;;;;14.77;7.68;;;5.50;99.90;;;;;;4789566;30;20517;-85
2021/12/18 09:05:50;;;;;;;15.65;7.95;;;6.50;99.90;;;;;;4772468;30;20056;-86
2021/12/18 09:11:47;;;;;;;;;;;;;;;;;;;;;
2021/12/18 09:14:47;;;;;;;15.32;7.10;;;6.70;99.90;;;;;;4789435;30;20494;-87
2021/12/18 09:17:37;;;;;;;13.57;7.50;;;6.40;99.90;;;;;;4772657;30;20067;-86
2021/12/18 09:23:32;;;;;;;15.73;6.97;;;6.20;99.90;;;;;;4802787;24;20047;-85
2021/12/18 09:26:51;;;;;;;14.98;7.38;;;6.10;99.90;;;;;;4789478;30;20062;-86
2021/12/18 09:47:39;;;;;;;21.65;9.02;;;6.00;99.90;;;;;;4856666;24;20070;-86
2021/12/18 09:50:25;;;;;;;18.60;8.35;;;6.30;99.90;;;;;;4785326;30;20131;-87
2021/12/18 09:52:59;;;;;;;18.10;9.10;;;5.10;99.90;;;;;;4779465;29;20053;-83
2021/12/18 09:56:07;;;;;;;17.83;8.25;;;6.00;99.90;;;;;;4785414;30;20078;-84
2021/12/18 09:59:01;;;;;;;15.93;8.43;;;6.60;99.90;;;;;;4693819;30;20116;-85
2021/12/18 10:01:35;;;;;;;19.45;9.38;;;6.30;99.90;;;;;;4786227;30;20138;-84
2021/12/18 10:04:28;;;;;;;19.52;8.35;;;6.40;99.90;;;;;;4775792;30;20180;-85
2021/12/18 10:07:17;;;;;;;19.10;8.90;;;6.30;99.90;;;;;;4771584;29;20062;-86
2021/12/18 10:10:06;;;;;;;19.08;8.43;;;6.50;99.90;;;;;;4788533;30;20070;-85
2021/12/18 10:13:18;;;;;;;14.90;7.78;;;6.50;99.90;;;;;;4784244;29;20047;-84
2021/12/18 10:16:13;;;;;;;16.15;8.68;;;7.50;99.90;;;;;;4784956;30;20503;-84
2021/12/18 10:18:48;;;;;;;19.17;10.43;;;6.70;99.90;;;;;;4785546;30;20138;-84
2021/12/18 10:21:29;;;;;;;27.13;9.77;;;6.60;99.90;;;;;;4787843;30;20066;-85
2021/12/18 10:24:19;;;;;;;22.33;10.25;;;6.60;99.90;;;;;;4778213;30;20054;-84
2021/12/18 10:27:18;;;;;;;20.17;10.05;;;6.50;99.90;;;;;;4785331;30;20047;-84
2021/12/18 10:29:52;;;;;;;17.25;8.50;;;7.80;99.90;;;;;;4784970;30;20116;-84
2021/12/18 10:32:32;;;;;;;17.92;9.40;;;7.00;99.90;;;;;;4786769;30;20051;-85
2021/12/18 10:35:31;;;;;;;16.95;9.40;;;6.70;99.90;;;;;;4785399;30;20088;-85
2021/12/18 10:38:11;;;;;;;22.92;9.38;;;6.10;99.90;;;;;;4787732;30;20051;-86
2021/12/18 10:40:48;;;;;;;16.55;9.18;;;7.00;99.90;;;;;;4784683;30;20147;-85
2021/12/18 10:43:18;;;;;;;18.15;9.35;;;7.10;99.90;;;;;;4785798;30;20051;-86
2021/12/18 10:45:51;;;;;;;22.17;11.10;;;6.80;99.90;;;;;;4784232;30;20112;-84
2021/12/18 10:48:29;;;;;;;21.40;11.18;;;6.90;99.90;;;;;;4786625;30;20075;-83
2021/12/18 10:51:29;;;;;;;;;;;;;;;;;;;;;
2021/12/18 10:54:44;;;;;;;;;;;;;;;;;;;;;
2021/12/18 10:57:24;;;;;;;18.83;9.75;;;7.10;99.90;;;;;;4786466;30;20047;-84
2021/12/18 11:03:38;;;;;;;24.80;9.88;;;7.00;99.90;;;;;;4787708;30;20054;-84
2021/12/18 11:06:31;;;;;;;24.60;12.30;;;7.20;99.90;;;;;;4787842;30;20075;-84
2021/12/18 11:09:17;;;;;;;13.65;7.85;;;7.30;99.90;;;;;;4789515;30;20423;-85
2021/12/18 11:14:51;;;;;;;29.38;9.00;;;7.30;99.90;;;;;;4802761;24;20066;-85
2021/12/18 11:17:26;;;;;;;21.13;9.80;;;5.90;99.90;;;;;;4788847;29;20192;-84
2021/12/18 11:20:08;;;;;;;30.90;9.38;;;7.10;99.90;;;;;;4791016;29;20051;-84
2021/12/18 11:22:44;;;;;;;23.02;8.02;;;7.10;99.90;;;;;;4790943;29;20051;-84
2021/12/18 11:28:37;;;;;;;15.50;8.38;;;7.20;99.90;;;;;;4787046;29;20121;-84
2021/12/18 11:31:20;;;;;;;15.65;7.78;;;7.10;99.90;;;;;;4805836;24;20460;-84
2021/12/18 11:33:53;;;;;;;21.70;8.75;;;7.10;99.90;;;;;;4772688;30;20488;-84
2021/12/18 11:36:31;;;;;;;22.85;8.93;;;7.30;99.90;;;;;;4774408;30;20062;-84
2021/12/18 11:39:07;;;;;;;30.27;10.27;;;7.50;99.90;;;;;;4772668;30;20066;-84
2021/12/18 11:41:55;;;;;;;25.70;9.13;;;7.30;99.90;;;;;;4773686;30;20063;-85
2021/12/18 11:44:33;;;;;;;19.70;8.80;;;7.30;99.90;;;;;;4773285;30;20129;-84
2021/12/18 11:50:31;;;;;;;11.07;6.57;;;8.50;99.90;;;;;;4763293;30;20105;-84
2021/12/18 11:53:12;;;;;;;13.27;7.55;;;7.50;99.90;;;;;;4773345;30;20055;-84
2021/12/18 11:56:02;;;;;;;20.67;6.53;;;7.90;99.90;;;;;;4773123;30;20055;-85
2021/12/18 11:58:34;;;;;;;13.93;6.22;;;7.40;99.90;;;;;;4773928;30;20055;-86
2021/12/18 12:01:30;;;;;;;;;;;;;;;;;;;;;
2021/12/18 12:04:10;;;;;;;12.35;6.25;;;7.80;99.90;;;;;;4773645;30;20064;-84
2021/12/18 12:06:45;;;;;;;27.08;6.85;;;7.70;99.90;;;;;;4754188;30;20505;-84
2021/12/18 12:09:54;;;;;;;26.48;11.45;;;7.80;99.90;;;;;;4754404;30;20500;-84
2021/12/18 12:12:43;;;;;;;12.18;7.07;;;8.40;99.90;;;;;;4770355;30;20136;-84
2021/12/18 12:15:30;;;;;;;14.75;8.20;;;7.50;99.90;;;;;;4771192;30;20087;-85
2021/12/18 12:18:11;;;;;;;11.77;7.15;;;8.00;99.90;;;;;;4770155;30;20138;-85
2021/12/18 12:20:58;;;;;;;16.30;7.00;;;8.00;99.90;;;;;;4772061;30;20071;-85
2021/12/18 12:27:34;;;;;;;27.02;8.25;;;8.40;99.90;;;;;;4747562;30;20055;-85
2021/12/18 12:30:13;;;;;;;22.33;8.53;;;7.00;99.90;;;;;;4772480;30;20495;-84
2021/12/18 12:33:32;;;;;;;24.63;8.65;;;8.10;99.90;;;;;;4802047;24;20062;-83
2021/12/18 12:36:08;;;;;;;12.23;7.70;;;8.00;99.90;;;;;;4789972;30;20469;-83
2021/12/18 12:42:26;;;;;;;14.05;7.63;;;8.30;99.90;;;;;;4797994;24;20116;-85
2021/12/18 12:45:45;;;;;;;18.05;7.82;;;7.90;99.90;;;;;;4786624;30;20236;-84
2021/12/18 12:58:32;;;;;;;31.52;9.85;;;8.30;99.90;;;;;;4735129;30;20531;-84
2021/12/18 13:01:17;;;;;;;13.07;7.18;;;8.30;99.90;;;;;;4737933;30;20048;-85
2021/12/18 13:03:55;;;;;;;13.93;6.57;;;9.10;99.90;;;;;;4736199;30;20516;-84
2021/12/18 13:09:23;;;;;;;13.80;6.60;;;8.60;99.90;;;;;;4730842;30;20068;-84
2021/12/18 13:12:11;;;;;;;28.77;8.80;;;8.50;99.90;;;;;;4735906;30;20112;-85
2021/12/18 13:14:46;;;;;;;27.52;8.02;;;9.30;99.90;;;;;;4735849;30;20052;-85
2021/12/18 13:20:47;;;;;;;14.88;7.25;;;8.40;99.90;;;;;;4735797;30;20057;-84
2021/12/18 13:23:44;;;;;;;38.17;9.27;;;6.90;99.90;;;;;;4735424;30;20080;-84
2021/12/18 13:26:34;;;;;;;17.75;8.57;;;8.50;99.90;;;;;;4735518;30;20056;-84
2021/12/18 13:29:14;;;;;;;24.80;8.80;;;8.50;99.90;;;;;;4734855;30;20400;-85
2021/12/18 13:34:48;;;;;;;30.13;8.77;;;8.10;99.90;;;;;;4908166;24;20038;-84
2021/12/18 13:37:30;;;;;;;18.10;7.97;;;8.10;99.90;;;;;;4770987;30;20412;-85
2021/12/18 13:40:29;;;;;;;12.70;7.85;;;8.00;99.90;;;;;;4770715;30;20056;-87
2021/12/18 13:43:56;;;;;;;;;;;;;;;;;;;;;
2021/12/18 13:47:02;;;;;;;13.80;6.80;;;8.30;99.90;;;;;;4770301;30;20372;-84
2021/12/18 13:57:06;;;;;;;41.67;11.15;;;7.30;99.90;;;;;;4624060;30;20081;-84
2021/12/18 14:06:20;;;;;;;14.48;7.38;;;8.10;99.90;;;;;;4816054;24;20100;-84
2021/12/18 14:23:07;;;;;;;16.77;6.97;;;7.80;99.90;;;;;;4803524;24;20470;-85
2021/12/18 14:26:30;;;;;;;10.15;6.45;;;7.30;99.90;;;;;;4829984;24;20098;-85
2021/12/18 14:29:29;;;;;;;16.63;7.00;;;7.60;99.90;;;;;;4789728;24;20062;31
2021/12/18 14:39:27;;;;;;;20.00;7.60;;;8.00;99.90;;;;;;4754982;30;20055;-84
2021/12/18 14:49:30;;;;;;;15.93;9.32;;;6.40;99.90;;;;;;4784649;30;20095;-84
2021/12/18 14:55:49;;;;;;;31.20;13.80;;;7.40;99.90;;;;;;4697867;30;20064;-85
2021/12/18 14:58:53;;;;;;;27.35;10.98;;;7.60;99.90;;;;;;4778500;30;20089;-84
2021/12/18 15:02:01;;;;;;;20.25;7.65;;;7.60;99.90;;;;;;4793133;30;20059;-84
2021/12/18 15:11:37;;;;;;;12.52;7.93;;;7.50;99.90;;;;;;4758821;30;20341;-85
2021/12/18 15:14:11;;;;;;;14.07;8.35;;;7.70;99.90;;;;;;4793488;30;20150;-83
2021/12/18 15:16:48;;;;;;;16.67;9.40;;;7.40;99.90;;;;;;4791312;30;20071;-84
2021/12/18 15:19:26;;;;;;;16.77;9.95;;;7.30;99.90;;;;;;4791297;30;20449;-84
2021/12/18 15:21:59;;;;;;;22.33;9.70;;;7.20;99.90;;;;;;4791384;30;20059;-84
2021/12/18 15:24:32;;;;;;;15.20;9.73;;;7.40;99.90;;;;;;4791648;30;20059;-84
2021/12/18 15:27:08;;;;;;;24.80;10.55;;;7.70;99.90;;;;;;4790978;30;20075;-85
2021/12/18 15:29:43;;;;;;;22.65;13.23;;;8.50;99.90;;;;;;4791466;30;20146;-83
2021/12/18 15:32:19;;;;;;;26.65;11.55;;;7.20;99.90;;;;;;4791129;30;20054;-83
2021/12/18 15:34:49;;;;;;;18.83;11.00;;;7.10;99.90;;;;;;4791198;30;20051;-84
2021/12/18 15:37:20;;;;;;;21.23;11.20;;;7.20;99.90;;;;;;4791346;30;20055;-84
2021/12/18 15:39:55;;;;;;;18.23;11.13;;;7.30;99.90;;;;;;4791010;30;20061;-84
2021/12/18 15:42:28;;;;;;;15.98;11.07;;;7.90;99.90;;;;;;4791195;30;20120;-85
2021/12/18 15:44:59;;;;;;;23.30;11.65;;;7.20;99.90;;;;;;4791364;30;20138;-84
2021/12/18 15:47:31;;;;;;;16.02;11.52;;;7.40;99.90;;;;;;4791657;30;20153;-84
2021/12/18 15:49:58;;;;;;;16.20;10.23;;;7.40;99.90;;;;;;4790627;30;20089;-84
2021/12/18 15:52:28;;;;;;;21.40;12.48;;;7.10;99.90;;;;;;4791182;30;20099;-84
2021/12/18 15:55:07;;;;;;;;;;;5.90;99.90;;;;;;4791866;30;20089;-83
2021/12/18 16:00:49;;;;;;;23.52;12.15;;;7.30;99.90;;;;;;4787375;30;20136;-85
2021/12/18 16:03:26;;;;;;;18.65;11.93;;;9.10;99.90;;;;;;4789680;29;20107;-84
2021/12/18 16:05:54;;;;;;;20.98;14.50;;;7.40;99.90;;;;;;4792303;29;20512;-84
2021/12/18 16:11:16;;;;;;;22.77;11.98;;;7.40;99.90;;;;;;4785955;30;20055;-84
2021/12/18 16:13:54;;;;;;;17.58;11.82;;;7.00;99.90;;;;;;4791033;30;20117;-84
2021/12/18 16:16:30;;;;;;;19.88;12.73;;;7.30;99.90;;;;;;4789975;30;20059;-83
2021/12/18 16:21:50;;;;;;;17.20;12.00;;;7.40;99.90;;;;;;4787808;30;20051;-84
2021/12/18 16:24:27;;;;;;;22.52;13.90;;;7.10;99.90;;;;;;4790337;30;20047;-84
2021/12/18 16:27:04;;;;;;;21.13;13.88;;;7.10;99.90;;;;;;4790970;30;20075;-84
2021/12/18 16:29:43;;;;;;;20.58;12.85;;;7.20;99.90;;;;;;4789924;30;20055;-83
2021/12/18 16:32:16;;;;;;;21.77;14.43;;;7.30;99.90;;;;;;4790046;30;20100;-84
2021/12/18 16:34:53;;;;;;;21.42;14.27;;;7.00;99.90;;;;;;4790279;30;20067;-84
2021/12/18 16:37:40;;;;;;;20.58;13.30;;;7.30;99.90;;;;;;4790367;30;20051;-84
2021/12/18 16:40:18;;;;;;;27.23;15.32;;;7.30;99.90;;;;;;4791298;30;20112;-85
2021/12/18 16:42:56;;;;;;;20.95;14.02;;;7.40;99.90;;;;;;4790309;30;20465;-84
2021/12/18 16:45:35;;;;;;;22.33;14.32;;;7.40;99.90;;;;;;4790665;30;20055;-84
2021/12/18 16:48:09;;;;;;;26.77;15.20;;;7.50;99.90;;;;;;4789878;30;20138;-84
2021/12/18 16:50:55;;;;;;;31.67;16.75;;;7.40;99.90;;;;;;4789884;30;20055;-85
2021/12/18 16:56:31;;;;;;;28.73;17.42;;;5.90;99.90;;;;;;4789607;30;20066;-85
2021/12/18 16:59:13;;;;;;;31.85;17.73;;;7.20;99.90;;;;;;4789647;30;20071;-85
2021/12/18 17:01:58;;;;;;;29.88;19.33;;;7.10;99.90;;;;;;4789888;30;20457;-85
2021/12/18 17:04:32;;;;;;;31.42;17.92;;;7.20;99.90;;;;;;4799029;24;20451;-85
2021/12/18 17:07:22;;;;;;;27.10;17.67;;;5.60;99.90;;;;;;4789197;30;20067;-85
2021/12/18 17:10:00;;;;;;;30.08;17.92;;;7.20;99.90;;;;;;4789426;30;20134;-84
2021/12/18 17:12:32;;;;;;;35.85;18.67;;;6.00;99.90;;;;;;4788810;30;20063;-84
2021/12/18 17:15:02;;;;;;;32.45;18.05;;;7.20;99.90;;;;;;4788475;29;20069;-84
2021/12/18 17:17:33;;;;;;;34.63;19.95;;;7.10;99.90;;;;;;4789982;30;20059;-84
2021/12/18 17:20:10;;;;;;;38.42;22.48;;;7.20;99.90;;;;;;4790187;30;20077;-84
2021/12/18 17:22:45;;;;;;;44.97;23.58;;;8.10;99.90;;;;;;4789850;30;20051;-84
2021/12/18 17:25:20;;;;;;;39.22;22.42;;;7.10;99.90;;;;;;4789152;30;20192;-83
2021/12/18 17:27:55;;;;;;;45.13;23.27;;;7.10;99.90;;;;;;4789543;30;20142;-83
2021/12/18 17:30:29;;;;;;;36.88;21.48;;;7.20;99.90;;;;;;4789103;30;20119;-84
2021/12/18 17:33:02;;;;;;;45.22;24.70;;;7.10;99.90;;;;;;4789737;29;20055;-84
2021/12/18 17:35:42;;;;;;;43.92;23.25;;;7.00;99.90;;;;;;4788681;29;20056;-83
2021/12/18 17:38:10;;;;;;;39.83;21.48;;;7.10;99.90;;;;;;4806758;29;20062;-84
2021/12/18 17:40:37;;;;;;;40.78;22.52;;;7.00;99.90;;;;;;4806662;29;20104;-84
2021/12/18 17:43:04;;;;;;;39.22;22.17;;;7.00;99.90;;;;;;4791864;29;20056;-84
2021/12/18 17:45:31;;;;;;;38.17;22.38;;;7.10;99.90;;;;;;4789014;30;20085;-84
2021/12/18 17:47:58;;;;;;;42.88;24.08;;;7.00;99.90;;;;;;4788369;30;20090;-83
2021/12/18 17:50:26;;;;;;;44.92;24.67;;;7.00;99.90;;;;;;4788557;30;20104;-84
2021/12/18 17:52:55;;;;;;;53.88;26.10;;;7.00;99.90;;;;;;4789065;30;20108;-84
2021/12/18 17:55:24;;;;;;;50.83;23.67;;;7.10;99.90;;;;;;4788622;30;20396;-83
2021/12/18 17:57:51;;;;;;;36.20;19.15;;;7.10;99.90;;;;;;4788565;30;20098;-84
2021/12/18 18:00:21;;;;;;;31.75;19.15;;;7.10;99.90;;;;;;4788287;30;20051;-83
2021/12/18 18:02:48;;;;;;;37.85;21.05;;;7.00;99.90;;;;;;4789733;29;20399;-83
2021/12/18 18:05:16;;;;;;;37.20;19.55;;;7.00;99.90;;;;;;4806197;29;20054;-84
2021/12/18 18:07:47;;;;;;;49.60;22.70;;;7.00;99.90;;;;;;4806815;29;20112;-85
2021/12/18 18:10:19;;;;;;;39.20;21.48;;;7.00;99.90;;;;;;4806531;29;20078;-84
2021/12/18 18:12:46;;;;;;;45.28;20.80;;;7.10;99.90;;;;;;4788725;29;20563;-84
2021/12/18 18:15:13;;;;;;;40.47;21.85;;;7.10;99.90;;;;;;4788103;30;20108;-84
2021/12/18 18:17:40;;;;;;;40.92;20.55;;;7.00;99.90;;;;;;4788297;30;20059;-84
2021/12/18 18:20:08;;;;;;;43.80;21.05;;;6.90;99.90;;;;;;4789027;30;20077;-85
2021/12/18 18:22:35;;;;;;;41.22;21.55;;;6.90;99.90;;;;;;4788674;30;20086;-84
2021/12/18 18:25:04;;;;;;;48.35;20.92;;;6.80;99.90;;;;;;4788202;30;20355;-84
2021/12/18 18:27:34;;;;;;;42.15;20.55;;;6.80;99.90;;;;;;4787895;30;20396;-84
2021/12/18 18:30:01;;;;;;;37.03;21.85;;;6.90;99.90;;;;;;4788319;30;20067;-84
2021/12/18 18:32:28;;;;;;;48.15;20.65;;;7.00;99.90;;;;;;4788916;30;20109;-84
2021/12/18 18:34:55;;;;;;;47.95;25.50;;;6.90;99.90;;;;;;4788419;30;20078;-84
2021/12/18 18:37:24;;;;;;;48.35;23.75;;;6.80;99.90;;;;;;4788511;30;20056;-84
2021/12/18 18:39:52;;;;;;;48.47;24.20;;;6.80;99.90;;;;;;4788841;30;20437;-84
2021/12/18 18:42:23;;;;;;;47.25;22.45;;;6.80;99.90;;;;;;4789611;30;20102;-84
2021/12/18 18:44:57;;;;;;;50.25;24.80;;;6.70;99.90;;;;;;4794490;30;20055;-85
2021/12/18 18:47:30;;;;;;;53.42;24.02;;;6.70;99.90;;;;;;4788154;30;20047;-84
2021/12/18 18:49:57;;;;;;;46.53;24.90;;;6.70;99.90;;;;;;4787903;30;20062;-85
2021/12/18 18:52:25;;;;;;;47.10;24.73;;;6.70;99.90;;;;;;4787556;30;20055;-85
2021/12/18 18:54:52;;;;;;;52.25;24.38;;;6.70;99.90;;;;;;4787423;30;20051;-83
2021/12/18 18:57:20;;;;;;;52.88;24.75;;;6.70;99.90;;;;;;4787525;30;20059;-84
2021/12/18 18:59:47;;;;;;;43.30;23.15;;;6.80;99.90;;;;;;4787913;30;20063;-83
2021/12/18 19:02:16;;;;;;;44.50;22.40;;;6.80;99.90;;;;;;4788265;30;20100;-84
2021/12/18 19:04:43;;;;;;;54.45;25.08;;;6.90;99.90;;;;;;4787220;30;20121;-83
2021/12/18 19:07:11;;;;;;;46.67;23.80;;;6.80;99.90;;;;;;4787050;30;20086;-84
2021/12/18 19:09:39;;;;;;;54.13;27.70;;;6.70;99.90;;;;;;4787384;30;20051;-84
2021/12/18 19:12:07;;;;;;;50.90;27.17;;;6.60;99.90;;;;;;4787305;30;20112;-84
2021/12/18 19:14:34;;;;;;;45.63;24.98;;;6.70;99.90;;;;;;4787202;29;20299;-84
2021/12/18 19:17:02;;;;;;;48.17;27.00;;;6.70;99.90;;;;;;4787201;29;20087;-84
2021/12/18 19:19:38;;;;;;;54.47;26.70;;;6.70;99.90;;;;;;4786970;30;20138;-84
2021/12/18 19:22:06;;;;;;;53.30;28.50;;;6.60;99.90;;;;;;4787236;30;20043;-84
2021/12/18 19:24:33;;;;;;;61.10;28.38;;;6.60;99.90;;;;;;4786906;30;20114;-84
2021/12/18 19:27:00;;;;;;;53.20;27.83;;;6.70;99.90;;;;;;4786782;30;20507;-84
2021/12/18 19:29:27;;;;;;;52.75;25.80;;;6.70;99.90;;;;;;4786707;30;20564;-84
2021/12/18 19:31:54;;;;;;;50.03;27.25;;;6.80;99.90;;;;;;4786955;30;20419;-84
2021/12/18 19:34:21;;;;;;;50.42;28.23;;;6.90;99.90;;;;;;4786438;30;20582;-84
2021/12/18 19:36:50;;;;;;;54.40;29.58;;;6.90;99.90;;;;;;4787083;29;20400;-84
2021/12/18 19:39:18;;;;;;;63.42;31.38;;;6.80;99.90;;;;;;4790266;30;20139;-84
2021/12/18 19:41:46;;;;;;;55.53;28.05;;;6.80;99.90;;;;;;4789828;30;20055;-84
2021/12/18 19:44:13;;;;;;;46.28;27.08;;;6.80;99.90;;;;;;4789606;30;20073;-83
2021/12/18 19:46:42;;;;;;;46.55;27.63;;;6.90;99.90;;;;;;4790000;30;20059;-84
2021/12/18 19:49:09;;;;;;;54.05;26.92;;;6.80;99.90;;;;;;4789694;30;20116;-84
2021/12/18 19:51:36;;;;;;;47.95;26.88;;;6.80;99.90;;;;;;4789637;30;20063;-84
2021/12/18 19:54:06;;;;;;;47.53;26.67;;;7.00;99.90;;;;;;4789580;30;20059;-84
2021/12/18 19:56:33;;;;;;;50.95;28.23;;;7.00;99.90;;;;;;4789783;30;20051;-84
2021/12/18 19:59:00;;;;;;;54.53;28.65;;;6.90;99.90;;;;;;4789451;30;20054;-84
2021/12/18 20:01:29;;;;;;;52.75;28.77;;;6.90;99.90;;;;;;4789706;30;20427;-84
2021/12/18 20:06:40;;;;;;;58.35;29.73;;;6.60;99.90;;;;;;4796475;29;20123;-84
2021/12/18 20:09:08;;;;;;;50.63;27.48;;;6.60;99.90;;;;;;4808952;29;20103;-84
2021/12/18 20:11:35;;;;;;;52.67;30.77;;;6.50;99.90;;;;;;4799649;29;20423;-84
2021/12/18 20:14:03;;;;;;;61.30;32.38;;;6.40;99.90;;;;;;4790496;30;20124;-85
2021/12/18 20:16:30;;;;;;;56.35;29.45;;;6.40;99.90;;;;;;4790614;30;20238;-84
2021/12/18 20:18:57;;;;;;;51.63;28.48;;;6.50;99.90;;;;;;4790438;30;20469;-84
2021/12/18 20:21:25;;;;;;;65.55;30.33;;;6.50;99.90;;;;;;4790326;30;20104;-84
2021/12/18 20:23:55;;;;;;;58.00;28.02;;;6.50;99.90;;;;;;4790546;30;20133;-84
2021/12/18 20:26:23;;;;;;;59.08;26.40;;;6.40;99.90;;;;;;4790450;30;20058;-84
2021/12/18 20:28:50;;;;;;;68.93;27.53;;;6.30;99.90;;;;;;4790249;30;20534;-83
2021/12/18 20:31:17;;;;;;;58.25;27.17;;;6.20;99.90;;;;;;4789811;30;20058;-84
2021/12/18 20:33:44;;;;;;;59.25;29.00;;;6.20;99.90;;;;;;4790020;30;20087;-84
2021/12/18 20:36:12;;;;;;;62.80;28.77;;;6.30;99.90;;;;;;4790443;30;20088;-84
2021/12/18 20:38:40;;;;;;;61.47;28.63;;;6.30;99.90;;;;;;4790395;30;20055;-84
2021/12/18 20:41:10;;;;;;;61.40;29.52;;;6.30;99.90;;;;;;4790183;30;20114;-84
2021/12/18 20:43:39;;;;;;;55.92;29.52;;;6.20;99.90;;;;;;4790096;30;20138;-84
2021/12/18 20:46:07;;;;;;;64.88;28.33;;;6.20;99.90;;;;;;4789077;30;20055;-84
2021/12/18 20:48:37;;;;;;;54.90;27.38;;;6.20;99.90;;;;;;4790376;29;20116;-84
2021/12/18 20:51:06;;;;;;;55.72;26.08;;;6.40;99.90;;;;;;4789579;30;20055;-84
2021/12/18 20:53:34;;;;;;;59.00;28.70;;;6.50;99.90;;;;;;4789480;30;20415;-84
2021/12/18 20:56:02;;;;;;;64.45;28.77;;;6.60;99.90;;;;;;4789438;30;20411;-84
2021/12/18 20:58:29;;;;;;;52.15;25.27;;;6.60;99.90;;;;;;4789339;30;20109;-84
2021/12/18 21:01:04;;;;;;;64.60;28.75;;;6.70;99.90;;;;;;4789044;30;20112;-84
2021/12/18 21:03:32;;;;;;;60.22;25.42;;;6.60;99.90;;;;;;4788941;29;20087;-84
2021/12/18 21:06:00;;;;;;;58.10;24.65;;;6.60;99.90;;;;;;4789039;30;20091;-82
2021/12/18 21:08:27;;;;;;;56.03;27.10;;;6.60;99.90;;;;;;4789171;30;20411;-84
2021/12/18 21:10:55;;;;;;;52.20;22.75;;;6.70;99.90;;;;;;4788968;30;20134;-84
2021/12/18 21:13:22;;;;;;;64.60;27.00;;;6.60;99.90;;;;;;4788967;30;20496;-84
2021/12/18 21:15:50;;;;;;;65.95;25.85;;;6.50;99.90;;;;;;4789059;30;20077;-84
2021/12/18 21:18:24;;;;;;;66.70;28.55;;;6.50;99.90;;;;;;4789274;30;20055;-84
2021/12/18 21:20:51;;;;;;;81.70;30.00;;;6.60;99.90;;;;;;4788983;30;20238;-84
2021/12/18 21:23:18;;;;;;;66.13;30.10;;;6.40;99.90;;;;;;4788984;30;20079;-84
2021/12/18 21:25:46;;;;;;;74.85;31.25;;;6.40;99.90;;;;;;4788879;30;20055;-84
2021/12/18 21:28:15;;;;;;;77.68;29.77;;;6.40;99.90;;;;;;4788514;30;20086;-84
2021/12/18 21:30:43;;;;;;;76.03;31.25;;;6.30;99.90;;;;;;4788285;30;20116;-83
2021/12/18 21:33:13;;;;;;;67.32;28.63;;;6.40;99.90;;;;;;4788819;30;20066;-83
2021/12/18 21:38:27;;;;;;;71.20;30.23;;;6.40;99.90;;;;;;4788412;30;20523;-84
2021/12/18 21:40:57;;;;;;;81.50;31.27;;;6.40;99.90;;;;;;4787742;30;20130;-84
2021/12/18 21:43:25;;;;;;;67.10;27.77;;;6.30;99.90;;;;;;4788024;30;20491;-84
2021/12/18 21:45:52;;;;;;;74.45;28.95;;;6.30;99.90;;;;;;4787996;30;20083;-83
2021/12/18 21:48:19;;;;;;;58.55;23.42;;;6.30;99.90;;;;;;4788218;30;20104;-84
2021/12/18 21:50:47;;;;;;;70.78;25.73;;;6.40;99.90;;;;;;4788296;30;20467;-84
2021/12/18 21:53:14;;;;;;;62.67;25.70;;;6.40;99.90;;;;;;4788272;30;20560;-84
2021/12/18 21:55:41;;;;;;;56.30;25.98;;;6.40;99.90;;;;;;4788296;30;20529;-83
2021/12/18 21:58:08;;;;;;;71.22;27.25;;;6.40;99.90;;;;;;4788405;30;20117;-83
2021/12/18 22:00:36;;;;;;;127.60;31.98;;;6.30;99.90;;;;;;4787533;30;20063;-84
2021/12/18 22:03:04;;;;;;;117.55;32.05;;;6.30;99.90;;;;;;4792803;29;20058;-83
2021/12/18 22:05:31;;;;;;;94.70;31.02;;;6.10;99.90;;;;;;4806223;29;20051;-83
2021/12/18 22:08:01;;;;;;;102.03;32.13;;;6.10;99.90;;;;;;4806145;29;20082;-84
2021/12/18 22:10:29;;;;;;;81.65;32.38;;;6.20;99.90;;;;;;4805881;29;20050;-84
2021/12/18 22:12:56;;;;;;;170.75;79.22;;;6.00;99.90;;;;;;4788162;30;20109;-84
2021/12/18 22:15:23;;;;;;;92.45;37.53;;;6.10;99.90;;;;;;4788147;30;20475;-84
2021/12/18 22:17:53;;;;;;;113.63;32.95;;;6.10;99.90;;;;;;4788424;30;20495;-84
2021/12/18 22:20:20;;;;;;;125.82;35.83;;;6.20;99.90;;;;;;4788511;30;20051;-84
2021/12/18 22:22:48;;;;;;;87.38;31.50;;;6.10;99.90;;;;;;4788592;30;20083;-84
2021/12/18 22:25:17;;;;;;;79.68;28.73;;;6.10;99.90;;;;;;4788398;30;20087;-84
2021/12/18 22:27:45;;;;;;;102.40;29.92;;;6.10;99.90;;;;;;4788962;30;20112;-85
2021/12/18 22:30:14;;;;;;;115.95;33.88;;;6.10;99.90;;;;;;4789675;30;20195;-83
2021/12/18 22:32:42;;;;;;;106.85;31.60;;;6.10;99.90;;;;;;4790683;30;20051;-83
2021/12/18 22:35:11;;;;;;;161.65;33.85;;;6.10;99.90;;;;;;4788657;30;20415;-83
2021/12/18 22:37:38;;;;;;;;;;;6.00;99.90;;;;;;4788937;30;20120;-83
2021/12/18 22:40:08;;;;;;;98.90;32.03;;;6.00;99.90;;;;;;4788542;30;19925;-84
2021/12/18 22:42:37;;;;;;;89.10;29.15;;;6.00;99.90;;;;;;4788627;30;20094;-83
2021/12/18 22:45:04;;;;;;;152.30;31.77;;;6.10;99.90;;;;;;4788344;30;20094;-83
2021/12/18 22:47:32;;;;;;;92.97;26.45;;;6.10;99.90;;;;;;4788265;30;20533;-83
2021/12/18 22:50:02;;;;;;;116.82;29.35;;;6.10;99.90;;;;;;4771962;30;20536;-83
2021/12/18 22:52:29;;;;;;;87.13;26.20;;;6.10;99.90;;;;;;4788155;30;20061;-83
2021/12/18 22:54:58;;;;;;;124.50;25.45;;;6.10;99.90;;;;;;4788148;30;20492;-83
2021/12/18 22:57:26;;;;;;;103.68;27.73;;;6.00;99.90;;;;;;4788136;30;20503;-83
2021/12/18 22:59:54;;;;;;;152.32;27.77;;;5.90;99.90;;;;;;4788205;30;20047;-83
2021/12/18 23:02:21;;;;;;;88.90;23.65;;;5.80;99.90;;;;;;4787779;30;20059;-83
2021/12/18 23:04:48;;;;;;;90.72;22.92;;;5.70;99.90;;;;;;4787644;30;20101;-84
2021/12/18 23:07:16;;;;;;;94.68;20.95;;;5.70;99.90;;;;;;4787865;30;20090;-83
2021/12/18 23:09:43;;;;;;;67.88;19.27;;;5.80;99.90;;;;;;4787684;30;20051;-83
2021/12/18 23:12:15;;;;;;;109.88;16.83;;;5.80;99.90;;;;;;4788868;29;20104;-83
2021/12/18 23:14:50;;;;;;;74.25;16.77;;;5.80;99.90;;;;;;4791155;30;20457;-83
2021/12/18 23:17:53;;;;;;;129.88;19.52;;;5.80;99.90;;;;;;4791073;30;20134;-83
2021/12/18 23:20:37;;;;;;;184.10;23.58;;;5.80;99.90;;;;;;4791023;30;20062;-84
2021/12/18 23:23:07;;;;;;;75.25;20.77;;;5.50;99.90;;;;;;4790723;30;20082;-84
2021/12/18 23:25:34;;;;;;;105.88;23.95;;;5.50;99.90;;;;;;4790976;30;20143;-83
2021/12/18 23:28:02;;;;;;;122.68;26.35;;;5.50;99.90;;;;;;4791293;30;20468;-84
2021/12/18 23:30:30;;;;;;;169.57;27.08;;;5.40;99.90;;;;;;4791264;30;20059;-83
2021/12/18 23:32:59;;;;;;;187.90;25.35;;;5.40;99.90;;;;;;4790864;30;20055;-84
2021/12/18 23:35:26;;;;;;;138.38;22.58;;;5.30;99.90;;;;;;4790789;30;20055;-83
2021/12/18 23:37:53;;;;;;;80.22;20.45;;;5.30;99.90;;;;;;4790936;30;20137;-84
2021/12/18 23:40:21;;;;;;;69.25;19.48;;;5.40;99.90;;;;;;4790846;30;20047;-84
2021/12/18 23:42:53;;;;;;;55.83;18.25;;;5.60;99.90;;;;;;4790548;30;20055;-84
2021/12/18 23:48:11;;;;;;;93.75;18.50;;;5.70;99.90;;;;;;4790957;30;20059;-84
2021/12/18 23:50:38;;;;;;;88.70;18.45;;;5.70;99.90;;;;;;4790685;30;20054;-84
2021/12/18 23:53:05;;;;;;;91.55;18.17;;;5.70;99.90;;;;;;4790479;30;20462;-84
2021/12/18 23:55:32;;;;;;;234.13;23.95;;;5.70;99.90;;;;;;4790579;30;20055;-84
2021/12/18 23:57:59;;;;;;;102.80;18.33;;;5.60;99.90;;;;;;4790545;30;20399;-84
